Townsend, WI (54175)

4:03 AM CDT on August 31, 2014 (GMT -0500)
KWILAKEW2 | Change Station
CLOSE
Current Station
Personal Weather Station
Location: Lakewood, WI
Elevation: 1219 ft
Nearby Weather Stations

Elev 1219 ft 45.31 °N, 88.47 °W | Updated 3 minutes ago

Overcast
Overcast
56.0 °F
Feels Like 56.0 °F
N
0.0
Wind Variable Wind from North
Gusts 1.0 mph

Today
High -- | Low -- °F
--% Chance of Precip.
Yesterday
High -- | Low -- °F
Precip. -- in
6:14 AM 7:33 PM
Waxing Crescent, 29% visible
Pressure 29.96 in
Visibility 10.0 miles
Clouds Mostly Cloudy 1100 ft
Dew Point 53 °F
Humidity 90%
Rainfall 0.00 in
Snow Depth Not available.
UV 0 out of 12
Pollen .20 out of 12
Air Quality Not available.
Flu Activity Not available.
METAR KAIG 310855Z AUTO 28003KT 10SM BKN011 12/12 A2996 RMK AO2 T01240124

More Conditions Fewer Conditions

Pressure 29.96 in
Visibility 10.0 miles
Clouds Mostly Cloudy 1100 ft
Dew Point 53 °F
Humidity 90%
Rainfall 0.00 in
Snow Depth Not available.
UV 0 out of 12
Pollen .20 out of 12
Air Quality Not available.
Flu Activity Not available.
METAR KAIG 310855Z AUTO 28003KT 10SM BKN011 12/12 A2996 RMK AO2 T01240124

More Conditions Fewer Conditions

10-Day Weather Forecast

Almanac

Astronomy

Aug. 31, 2014 Rise Set
Actual Time 6:14 AM CDT 7:33 PM CDT
Civil Twilight 5:44 AM CDT 8:04 PM CDT
Nautical Twilight 5:07 AM CDT 8:40 PM CDT
Astronomical Twilight 4:28 AM CDT 9:19 PM CDT
Moon 12:18 PM CDT 10:30 PM CDT
Length of Visible Light 14h 19m
Length of Day
13h 18m
Tomorrow will be 3m 3s shorter.
Waxing Crescent, 29% of the Moon is Illuminated
Today
Waxing Crescent
Sep 2
First Quarter
Sep 8
Full
Sep 15
Last Quarter
Sep 24
New

Today's Extremes

State Highs State Lows

Community

WunderPhotos

Upload Photos

1,748,834 photos uploaded!

Nearby

Snow Depth

Station Depth Elevation
No new snow has been reported.

Earthquake Activity

City Distance Mag. Time & Date
No recent earthquake activity has been reported nearby.
Minimum magnitude displayed is 2.5.

Coastal Water Temperatures

Place Temperature
No Stations Reporting

Nearby Weather Stations